Terminal Aerodrome Forecast
Issued by NWS

Current Version | Previous Version | Text Only | Print | Product List | Glossary Off
Versions: 1 2 3 4 5 6 7 8 9 10 11 12 13 14 15 16 17 18 19 20 21 22 23 24 25 26

000
FTUS41 KILN 030858 AAB
TAFLUK
TAF AMD
KLUK 030858Z 0309/0406 05004KT P6SM OVC017
     FM031400 35004KT P6SM BKN025 OVC040
     FM031900 32005KT P6SM BKN045
     FM040500 VRB03KT P6SM SCT040 SCT100=

USA.gov is the U.S. government's official web portal to all federal, state and local government web resources and services.